Time;durP1;ratioP1;P1;durP2;ratioP2;P2;SDS_P1;SDS_P2;PMS_P1;PMS_P2;Temp;Humidity;BMP_temperature;BMP_pressure;BME280_temperature;BME280_humidity;BME280_pressure;Samples;Min_cycle;Max_cycle;Signal;HPM_P1;HPM_P2
2023/12/10 00:02:05;;;;;;;3.30;3.00;;;;;;;14.87;50.03;97780.56;105325;1260;66149;-35
2023/12/10 00:04:33;;;;;;;3.20;2.90;;;;;;;14.87;50.08;97773.55;105528;1258;72535;-35
2023/12/10 00:07:01;;;;;;;4.00;3.20;;;;;;;14.87;49.97;97774.80;105275;1260;61911;-35
2023/12/10 00:09:29;;;;;;;3.90;3.50;;;;;;;14.87;49.93;97771.19;105554;1257;61369;-35
2023/12/10 00:11:56;;;;;;;3.90;3.50;;;;;;;14.88;49.99;97767.20;105605;1258;74581;-35
2023/12/10 00:14:24;;;;;;;3.40;3.00;;;;;;;14.87;50.02;97767.79;105490;1261;65563;-35
2023/12/10 00:16:51;;;;;;;3.50;3.20;;;;;;;14.87;49.94;97771.19;105499;1257;72292;-35
2023/12/10 00:19:19;;;;;;;3.30;3.00;;;;;;;14.87;49.93;97768.71;105407;1260;61281;-34
2023/12/10 00:21:47;;;;;;;3.90;3.20;;;;;;;14.87;49.89;97767.95;105545;1257;61238;-34
2023/12/10 00:24:14;;;;;;;3.40;3.10;;;;;;;14.87;50.01;97767.95;105584;1260;74651;-35
2023/12/10 00:26:41;;;;;;;3.60;2.80;;;;;;;14.87;49.97;97767.63;105547;1261;65378;-35
2023/12/10 00:29:09;;;;;;;3.20;2.90;;;;;;;14.87;50.02;97766.70;105576;1257;72750;-36
2023/12/10 00:31:36;;;;;;;3.30;3.00;;;;;;;14.88;49.91;97764.88;105555;1260;61263;-35
2023/12/10 00:34:03;;;;;;;3.10;2.80;;;;;;;14.87;49.97;97761.31;105555;1257;61343;-35
2023/12/10 00:36:31;;;;;;;3.40;3.10;;;;;;;14.87;49.96;97761.70;105276;1257;74535;-35
2023/12/10 00:38:59;;;;;;;3.60;3.10;;;;;;;14.87;50.03;97756.30;105225;1260;64961;-35
2023/12/10 00:41:27;;;;;;;5.20;3.00;;;;;;;14.87;50.02;97751.83;105167;1257;72624;-35
2023/12/10 00:43:54;;;;;;;3.20;2.90;;;;;;;14.87;49.92;97749.89;105350;1257;61370;-35
2023/12/10 00:46:21;;;;;;;3.90;3.00;;;;;;;14.87;49.96;97749.95;105181;1257;61317;-36
2023/12/10 00:48:49;;;;;;;3.40;3.00;;;;;;;14.87;50.01;97754.52;105231;1260;74372;-36
2023/12/10 00:51:20;;;;;;;3.10;2.80;;;;;;;14.87;49.95;97761.44;105583;1260;66693;-36
2023/12/10 00:53:48;;;;;;;3.80;3.40;;;;;;;14.87;49.96;97764.84;105493;1258;72595;-36
2023/12/10 00:56:15;;;;;;;3.40;3.10;;;;;;;14.87;49.95;97765.76;105188;1259;61360;-34
2023/12/10 00:58:43;;;;;;;3.30;2.90;;;;;;;14.86;49.94;97762.80;105526;1258;61363;-34
2023/12/10 01:01:10;;;;;;;3.40;3.10;;;;;;;14.86;49.96;97760.73;105398;1260;74962;-34
2023/12/10 01:03:38;;;;;;;3.40;3.10;;;;;;;14.86;49.92;97755.19;105173;1260;65802;-36
2023/12/10 01:06:06;;;;;;;3.40;3.00;;;;;;;14.86;49.93;97756.88;105310;1257;73605;-36
2023/12/10 01:08:33;;;;;;;3.00;2.70;;;;;;;14.87;49.98;97760.90;105393;1260;61370;-35
2023/12/10 01:11:00;;;;;;;3.40;3.10;;;;;;;14.87;49.88;97755.50;105572;1257;61311;-35
2023/12/10 01:13:28;;;;;;;3.40;3.10;;;;;;;14.86;49.94;97751.48;105552;1260;74607;-35
2023/12/10 01:15:55;;;;;;;3.20;2.90;;;;;;;14.86;49.84;97751.86;105608;1260;65408;-34
2023/12/10 01:18:23;;;;;;;3.30;2.40;;;;;;;14.86;49.83;97754.73;105512;1257;71684;-34
2023/12/10 01:20:51;;;;;;;3.20;2.90;;;;;;;14.86;49.92;97750.46;105529;1260;61229;-34
2023/12/10 01:23:19;;;;;;;3.20;2.90;;;;;;;14.86;49.84;97748.30;105564;1258;61364;-34
2023/12/10 01:25:47;;;;;;;3.20;2.90;;;;;;;14.86;49.92;97744.38;105769;1260;74318;-34
2023/12/10 01:28:14;;;;;;;3.20;2.90;;;;;;;14.86;49.89;97746.38;105530;1259;65067;-34
2023/12/10 01:30:42;;;;;;;3.40;2.90;;;;;;;14.85;49.91;97751.45;105827;1257;72641;-34
2023/12/10 01:33:10;;;;;;;3.20;2.90;;;;;;;14.85;49.88;97752.69;105589;1259;61346;-34
2023/12/10 01:35:37;;;;;;;3.60;3.10;;;;;;;14.86;49.94;97755.02;105566;1258;61353;-36
2023/12/10 01:38:05;;;;;;;3.00;2.70;;;;;;;14.85;49.88;97749.99;105385;1257;75618;-36
2023/12/10 01:40:33;;;;;;;3.50;3.20;;;;;;;14.85;49.95;97743.60;105103;1260;66148;-36
2023/12/10 01:43:07;;;;;;;3.70;3.30;;;;;;;14.85;49.94;97738.90;105362;1257;72680;-35
2023/12/10 01:45:34;;;;;;;3.10;2.80;;;;;;;14.85;49.91;97743.44;105767;1260;61357;-35
2023/12/10 01:48:06;;;;;;;3.10;2.70;;;;;;;14.84;49.80;97743.40;105482;1257;61268;-35
2023/12/10 01:50:35;;;;;;;3.50;3.10;;;;;;;14.85;49.77;97748.25;105666;1261;74623;-35
2023/12/10 01:53:02;;;;;;;3.00;2.70;;;;;;;14.84;49.75;97751.08;105558;1260;66364;-35
2023/12/10 01:55:30;;;;;;;3.20;2.90;;;;;;;14.83;49.64;97751.69;105497;1257;72643;-35
2023/12/10 01:57:58;;;;;;;3.80;3.10;;;;;;;14.83;49.69;97755.52;105600;1260;61161;-34
2023/12/10 02:00:26;;;;;;;3.20;2.90;;;;;;;14.83;49.62;97752.58;105545;1258;61220;-35
2023/12/10 02:02:55;;;;;;;2.80;2.60;;;;;;;14.82;49.74;97746.17;105389;1257;74702;-35
2023/12/10 02:05:23;;;;;;;3.30;2.90;;;;;;;14.82;49.67;97738.45;105288;1261;66186;-35
2023/12/10 02:07:50;;;;;;;3.80;3.10;;;;;;;14.82;49.64;97731.05;105032;1257;72607;-35
2023/12/10 02:10:18;;;;;;;3.70;2.90;;;;;;;14.81;49.75;97731.34;105127;1261;61247;-35
2023/12/10 02:12:46;;;;;;;3.20;2.90;;;;;;;14.81;49.54;97725.16;105502;1258;61614;-35
2023/12/10 02:15:18;;;;;;;3.20;2.90;;;;;;;14.81;49.58;97727.84;105559;1257;74299;-35
2023/12/10 02:17:46;;;;;;;3.50;3.20;;;;;;;14.81;49.60;97723.05;105620;1259;65189;-35
2023/12/10 02:20:16;;;;;;;3.00;2.70;;;;;;;14.80;49.66;97717.41;105547;1257;71512;-35
2023/12/10 02:23:04;;;;;;;3.10;2.80;;;;;;;14.80;49.63;97711.55;105375;1260;61231;-35
2023/12/10 02:25:32;;;;;;;3.90;3.00;;;;;;;14.79;49.57;97711.35;105323;1257;61324;-35
2023/12/10 02:28:00;;;;;;;3.40;2.90;;;;;;;14.78;49.68;97707.48;105496;1260;74617;-35
2023/12/10 02:30:28;;;;;;;3.20;2.70;;;;;;;14.78;49.63;97702.77;105593;1259;64936;-35
2023/12/10 02:32:56;;;;;;;3.40;2.90;;;;;;;14.77;49.59;97698.95;105624;1257;72587;-35
2023/12/10 02:35:24;;;;;;;3.00;2.70;;;;;;;14.77;49.50;97702.14;105580;1258;61210;-35
2023/12/10 02:37:51;;;;;;;3.60;2.90;;;;;;;14.77;49.50;97697.63;105653;1257;61290;-35
2023/12/10 02:40:18;;;;;;;3.60;3.00;;;;;;;14.76;49.42;97697.22;105509;1257;74391;-35
2023/12/10 02:42:46;;;;;;;3.20;2.70;;;;;;;14.76;49.59;97700.21;105501;1260;66160;-35
2023/12/10 02:45:14;;;;;;;3.30;3.00;;;;;;;14.75;49.58;97700.05;105362;1258;72576;-35
2023/12/10 02:47:42;;;;;;;2.80;2.60;;;;;;;14.75;49.44;97703.13;105256;1256;61259;-35
2023/12/10 02:50:09;;;;;;;3.00;2.70;;;;;;;14.75;49.56;97703.48;105364;1258;61337;-35
2023/12/10 02:52:37;;;;;;;4.60;3.10;;;;;;;14.74;49.55;97705.77;105197;1260;74628;-35
2023/12/10 02:55:05;;;;;;;3.20;2.90;;;;;;;14.74;49.55;97711.54;105460;1261;66223;-35
2023/12/10 02:57:32;;;;;;;3.40;2.70;;;;;;;14.74;49.49;97705.83;105412;1259;72696;-35
2023/12/10 03:00:00;;;;;;;3.30;2.80;;;;;;;14.73;49.56;97708.55;105224;1261;61257;-35
2023/12/10 03:02:28;;;;;;;2.90;2.60;;;;;;;14.73;49.52;97709.10;105119;1258;61264;-35
2023/12/10 03:04:55;;;;;;;3.10;2.80;;;;;;;14.72;49.57;97704.21;105486;1260;74641;-35
2023/12/10 03:07:23;;;;;;;3.20;2.90;;;;;;;14.71;49.43;97700.03;105657;1261;64086;-35
2023/12/10 03:09:50;;;;;;;3.10;2.80;;;;;;;14.71;49.50;97696.86;105307;1257;72939;-35
2023/12/10 03:12:17;;;;;;;3.20;2.90;;;;;;;14.71;49.50;97698.23;105204;1260;61263;-35
2023/12/10 03:14:45;;;;;;;4.00;3.10;;;;;;;14.71;49.57;97694.45;105534;1257;61235;-35
2023/12/10 03:17:12;;;;;;;3.00;2.70;;;;;;;14.70;49.59;97692.58;105315;1257;74806;-35
2023/12/10 03:19:40;;;;;;;2.90;2.70;;;;;;;14.69;49.41;97687.71;105269;1261;65947;-34
2023/12/10 03:22:07;;;;;;;3.00;2.70;;;;;;;14.69;49.48;97681.63;105412;1259;72457;-35
2023/12/10 03:24:35;;;;;;;3.00;2.70;;;;;;;14.69;49.50;97685.68;105264;1260;61341;-35
2023/12/10 03:27:02;;;;;;;3.20;2.90;;;;;;;14.69;49.50;97686.59;105379;1257;61341;-35
2023/12/10 03:29:30;;;;;;;3.30;2.80;;;;;;;14.68;49.46;97683.42;105558;1258;73179;-35
2023/12/10 03:31:57;;;;;;;3.90;2.90;;;;;;;14.68;49.53;97683.27;105663;1257;66266;-35
2023/12/10 03:34:25;;;;;;;3.40;3.10;;;;;;;14.68;49.48;97680.48;105517;1257;72590;-35
2023/12/10 03:36:52;;;;;;;2.80;2.60;;;;;;;14.68;49.48;97680.39;105550;1261;61341;-35
2023/12/10 03:39:20;;;;;;;3.60;2.90;;;;;;;14.67;49.50;97678.23;105569;1258;61231;-35
2023/12/10 03:41:49;;;;;;;3.70;2.90;;;;;;;14.67;49.44;97670.91;105461;1260;74595;-35
2023/12/10 03:44:16;;;;;;;3.00;2.70;;;;;;;14.67;49.47;97670.61;105497;1261;63737;-34
2023/12/10 03:46:43;;;;;;;3.00;2.70;;;;;;;14.66;49.40;97672.73;105569;1259;72576;-35
2023/12/10 03:49:11;;;;;;;3.60;3.10;;;;;;;14.66;49.63;97678.23;105501;1260;61256;-35
2023/12/10 03:51:38;;;;;;;3.20;2.90;;;;;;;14.67;49.50;97681.66;105625;1257;61270;-34
2023/12/10 03:54:05;;;;;;;3.10;2.70;;;;;;;14.66;49.44;97682.70;105433;1260;73468;-36
2023/12/10 03:56:33;;;;;;;3.20;2.90;;;;;;;14.66;49.49;97687.94;105466;1261;66111;-34
2023/12/10 03:59:00;;;;;;;3.00;2.70;;;;;;;14.65;49.60;97687.37;105337;1259;72894;-34
2023/12/10 04:01:28;;;;;;;4.10;2.80;;;;;;;14.65;49.50;97684.52;105282;1260;61232;-36
2023/12/10 04:03:55;;;;;;;3.30;3.00;;;;;;;14.65;49.48;97688.61;105398;1257;61283;-35
2023/12/10 04:06:23;;;;;;;2.80;2.50;;;;;;;14.65;49.49;97688.75;105598;1260;75088;-35
2023/12/10 04:08:50;;;;;;;3.70;2.80;;;;;;;14.65;49.58;97691.48;105549;1260;66093;-35
2023/12/10 04:11:22;;;;;;;5.10;3.00;;;;;;;14.64;49.51;97695.59;105617;1257;73319;-35
2023/12/10 04:13:50;;;;;;;3.20;2.90;;;;;;;14.64;49.50;97691.89;105560;1261;61257;-35
2023/12/10 04:16:27;;;;;;;3.50;2.60;;;;;;;14.64;49.51;97693.57;105399;1256;61323;-36
2023/12/10 04:18:54;;;;;;;3.60;3.20;;;;;;;14.64;49.55;97698.29;105583;1260;74420;-36
2023/12/10 04:21:22;;;;;;;3.40;2.90;;;;;;;14.64;49.60;97696.16;105610;1260;65835;-36
2023/12/10 04:23:50;;;;;;;3.30;3.00;;;;;;;14.63;49.55;97694.38;105577;1258;71609;-33
2023/12/10 04:26:17;;;;;;;2.80;2.50;;;;;;;14.63;49.60;97692.98;105629;1261;61155;-35
2023/12/10 04:28:45;;;;;;;3.00;2.60;;;;;;;14.63;49.53;97692.23;105385;1259;61313;-34
2023/12/10 04:31:12;;;;;;;3.30;3.00;;;;;;;14.63;49.65;97689.21;105183;1261;74594;-35
2023/12/10 04:33:41;;;;;;;3.20;2.90;;;;;;;14.63;49.70;97690.83;105223;1261;67243;-35
2023/12/10 04:36:09;;;;;;;4.10;3.00;;;;;;;14.63;49.62;97683.60;105209;1259;72720;-35
2023/12/10 04:38:36;;;;;;;2.80;2.60;;;;;;;14.64;49.58;97684.46;105325;1261;61281;-36
2023/12/10 04:41:04;;;;;;;2.90;2.60;;;;;;;14.63;49.67;97683.35;105445;1258;61354;-36
2023/12/10 04:43:31;;;;;;;3.20;2.90;;;;;;;14.63;49.68;97673.73;105623;1258;74683;-35
2023/12/10 04:45:59;;;;;;;2.90;2.60;;;;;;;14.63;49.61;97673.59;105640;1261;64839;-35
2023/12/10 04:48:26;;;;;;;3.10;2.70;;;;;;;14.63;49.61;97668.52;105501;1259;72653;-36
2023/12/10 04:50:54;;;;;;;3.40;3.00;;;;;;;14.63;49.66;97665.88;105385;1260;61312;-35
2023/12/10 04:53:21;;;;;;;3.70;3.00;;;;;;;14.63;49.67;97655.48;105212;1259;61218;-35
2023/12/10 04:55:49;;;;;;;4.40;3.00;;;;;;;14.63;49.76;97653.16;105530;1257;74085;-35
2023/12/10 04:58:16;;;;;;;3.50;3.10;;;;;;;14.63;49.65;97656.71;105332;1261;66182;-35
2023/12/10 05:00:43;;;;;;;3.40;2.80;;;;;;;14.63;49.70;97658.33;105455;1261;72642;-35
2023/12/10 05:03:11;;;;;;;3.30;3.00;;;;;;;14.63;49.66;97655.02;105617;1261;61250;-35
2023/12/10 05:05:39;;;;;;;3.40;2.70;;;;;;;14.63;49.72;97653.23;105901;1256;61273;-34
2023/12/10 05:08:06;;;;;;;2.80;2.40;;;;;;;14.63;49.55;97659.48;105604;1259;74358;-35
2023/12/10 05:10:34;;;;;;;4.40;3.10;;;;;;;14.62;49.62;97659.77;106027;1260;65375;-34
2023/12/10 05:13:01;;;;;;;3.20;2.80;;;;;;;14.63;49.66;97661.63;105538;1259;72562;-35
2023/12/10 05:15:29;;;;;;;3.10;2.80;;;;;;;14.63;49.68;97661.80;105135;1261;61252;-35
2023/12/10 05:17:56;;;;;;;3.10;2.80;;;;;;;14.63;49.49;97658.39;105167;1259;61219;-35
2023/12/10 05:20:24;;;;;;;2.90;2.70;;;;;;;14.63;49.57;97658.08;105270;1260;74284;-35
2023/12/10 05:22:51;;;;;;;2.80;2.50;;;;;;;14.62;49.64;97660.84;105453;1261;66292;-35
2023/12/10 05:25:18;;;;;;;3.40;3.10;;;;;;;14.62;49.69;97669.09;105156;1261;72425;-35
2023/12/10 05:27:46;;;;;;;2.90;2.60;;;;;;;14.62;49.65;97670.70;105518;1261;61245;-34
2023/12/10 05:30:13;;;;;;;3.00;2.70;;;;;;;14.62;49.74;97672.17;105555;1259;61335;-35
2023/12/10 05:32:41;;;;;;;3.10;2.80;;;;;;;14.62;49.69;97669.86;105415;1259;74736;-35
2023/12/10 05:35:08;;;;;;;2.80;2.60;;;;;;;14.62;49.56;97667.00;105493;1260;66052;-35
2023/12/10 05:37:35;;;;;;;3.50;2.70;;;;;;;14.62;49.64;97661.92;105355;1258;72490;-34
2023/12/10 05:40:03;;;;;;;4.40;2.70;;;;;;;14.62;49.71;97664.91;105326;1261;61234;-35
2023/12/10 05:42:31;;;;;;;3.00;2.70;;;;;;;14.62;49.67;97668.36;105367;1257;61392;-35
2023/12/10 05:44:59;;;;;;;3.30;2.70;;;;;;;14.62;49.61;97667.61;105551;1261;74416;-35
2023/12/10 05:47:26;;;;;;;3.10;2.80;;;;;;;14.61;49.63;97672.14;105506;1261;66119;-35
2023/12/10 05:49:53;;;;;;;3.90;3.30;;;;;;;14.62;49.75;97671.70;105536;1257;72619;-35
2023/12/10 05:52:21;;;;;;;2.90;2.60;;;;;;;14.62;49.69;97671.38;105400;1262;61231;-35
2023/12/10 05:54:48;;;;;;;3.20;2.70;;;;;;;14.62;49.76;97665.77;105645;1259;61156;-34
2023/12/10 05:57:16;;;;;;;3.40;3.10;;;;;;;14.62;49.81;97662.81;105327;1261;74669;-35
2023/12/10 05:59:43;;;;;;;3.10;2.60;;;;;;;14.61;49.72;97659.95;105424;1261;65851;-36
2023/12/10 06:02:10;;;;;;;3.40;3.00;;;;;;;14.61;49.80;97657.58;105196;1260;72594;-34
2023/12/10 06:04:38;;;;;;;3.40;3.00;;;;;;;14.62;49.71;97661.13;105211;1261;61344;-34
2023/12/10 06:07:05;;;;;;;3.50;2.70;;;;;;;14.61;49.63;97658.72;105527;1259;61246;-34
2023/12/10 06:09:33;;;;;;;3.10;2.80;;;;;;;14.61;49.76;97661.95;105463;1259;74555;-35
2023/12/10 06:12:00;;;;;;;3.30;2.70;;;;;;;14.61;49.74;97664.49;105566;1261;65101;-34
2023/12/10 06:14:28;;;;;;;3.00;2.60;;;;;;;14.61;49.71;97664.02;105384;1259;72520;-34
2023/12/10 06:16:55;;;;;;;2.90;2.50;;;;;;;14.61;49.71;97664.23;105209;1261;61337;-35
2023/12/10 06:19:22;;;;;;;3.10;2.80;;;;;;;14.61;49.66;97666.71;105175;1259;61257;-35
2023/12/10 06:21:50;;;;;;;3.40;2.90;;;;;;;14.61;49.67;97664.71;105236;1259;74843;-35
2023/12/10 06:24:17;;;;;;;3.50;2.90;;;;;;;14.61;49.84;97670.64;105438;1259;66116;-35
2023/12/10 06:26:45;;;;;;;3.30;3.00;;;;;;;14.61;49.74;97665.63;105561;1259;71468;-35
2023/12/10 06:29:12;;;;;;;3.40;2.60;;;;;;;14.61;49.74;97671.49;105290;1261;61174;-35
2023/12/10 06:31:39;;;;;;;3.90;2.70;;;;;;;14.61;49.73;97669.34;105491;1261;61790;-35
2023/12/10 06:34:07;;;;;;;3.00;2.70;;;;;;;14.61;49.67;97664.71;105380;1258;75212;-35
2023/12/10 06:36:35;;;;;;;3.60;3.00;;;;;;;14.61;49.69;97666.88;105434;1261;66142;-35
2023/12/10 06:39:03;;;;;;;3.20;2.90;;;;;;;14.61;49.77;97667.46;105401;1258;72642;-35
2023/12/10 06:41:30;;;;;;;4.30;2.80;;;;;;;14.60;49.63;97667.84;105382;1261;61268;-35
2023/12/10 06:43:58;;;;;;;3.10;2.80;;;;;;;14.60;49.70;97670.01;105634;1259;61251;-35
2023/12/10 06:46:26;;;;;;;3.20;2.90;;;;;;;14.61;49.56;97672.48;105634;1260;74628;-35
2023/12/10 06:48:53;;;;;;;3.20;2.90;;;;;;;14.61;49.60;97675.02;105382;1261;65890;-34
2023/12/10 06:51:21;;;;;;;3.00;2.70;;;;;;;14.61;49.72;97673.02;105168;1259;72509;-35
2023/12/10 06:53:48;;;;;;;3.40;2.90;;;;;;;14.60;49.64;97667.85;105252;1259;61207;-35
2023/12/10 06:56:16;;;;;;;3.00;2.70;;;;;;;14.61;49.64;97664.93;105497;1259;61317;-35
2023/12/10 06:58:43;;;;;;;2.80;2.60;;;;;;;14.61;49.66;97662.55;105039;1257;187787;-36
2023/12/10 07:01:10;;;;;;;3.10;2.80;;;;;;;14.61;49.64;97662.71;105445;1259;65914;-34
2023/12/10 07:03:38;;;;;;;3.40;3.00;;;;;;;14.61;49.76;97661.48;105174;1260;71671;-35
2023/12/10 07:06:06;;;;;;;3.70;3.00;;;;;;;14.61;49.64;97664.17;105204;1259;61220;-35
2023/12/10 07:08:33;;;;;;;3.20;2.70;;;;;;;14.61;49.70;97666.17;105450;1261;61303;-34
2023/12/10 07:11:02;;;;;;;3.20;2.90;;;;;;;14.61;49.71;97665.63;105336;1261;74430;-35
2023/12/10 07:13:30;;;;;;;3.20;2.70;;;;;;;14.61;49.71;97662.55;105325;1261;65479;-35
2023/12/10 07:15:58;;;;;;;3.20;2.80;;;;;;;14.61;49.63;97666.27;105535;1259;72758;-35
2023/12/10 07:18:25;;;;;;;3.10;2.80;;;;;;;14.61;49.58;97664.42;105604;1261;61412;-36
2023/12/10 07:20:52;;;;;;;2.90;2.60;;;;;;;14.61;49.69;97667.19;105552;1257;61212;-36
2023/12/10 07:23:20;;;;;;;3.10;2.70;;;;;;;14.61;49.52;97674.25;105186;1257;74648;-36
2023/12/10 07:25:47;;;;;;;3.10;2.80;;;;;;;14.61;49.62;97670.96;105350;1260;66112;-34
2023/12/10 07:28:16;;;;;;;3.00;2.70;;;;;;;14.61;49.67;97673.05;105333;1259;72621;-35
2023/12/10 07:30:43;;;;;;;3.00;2.70;;;;;;;14.62;49.68;97678.61;105530;1262;61245;-35
2023/12/10 07:33:11;;;;;;;2.90;2.60;;;;;;;14.61;49.70;97683.52;105333;1259;61240;-36
2023/12/10 07:35:39;;;;;;;3.10;2.80;;;;;;;14.62;49.55;97679.46;105660;1258;74630;-34
2023/12/10 07:38:06;;;;;;;3.70;3.00;;;;;;;14.61;49.43;97681.68;105175;1259;65192;-35
2023/12/10 07:40:33;;;;;;;3.20;2.90;;;;;;;14.62;49.44;97684.91;105756;1259;72643;-35
2023/12/10 07:43:01;;;;;;;3.10;2.80;;;;;;;14.62;49.48;97689.70;105335;1261;61260;-35
2023/12/10 07:45:28;;;;;;;3.50;2.80;;;;;;;14.61;49.41;97690.84;105196;1259;61248;-34
2023/12/10 07:47:56;;;;;;;3.10;2.60;;;;;;;14.62;49.39;97695.25;105499;1260;74430;-35
2023/12/10 07:50:24;;;;;;;4.00;2.80;;;;;;;14.61;49.33;97696.67;105248;1261;65632;-34
2023/12/10 07:52:51;;;;;;;3.30;2.80;;;;;;;14.61;49.36;97697.12;105227;1259;71896;-35
2023/12/10 07:55:18;;;;;;;2.90;2.60;;;;;;;14.61;49.22;97699.21;105501;1261;61244;-34
2023/12/10 07:57:45;;;;;;;2.70;2.40;;;;;;;14.60;49.40;97707.58;105614;1259;61280;-35
2023/12/10 08:00:14;;;;;;;4.40;2.70;;;;;;;14.61;49.14;97709.89;105511;1257;74622;-35
2023/12/10 08:02:41;;;;;;;3.40;2.70;;;;;;;14.60;49.28;97711.80;105317;1261;66050;-35
2023/12/10 08:05:08;;;;;;;3.20;2.90;;;;;;;14.59;49.28;97713.02;105198;1259;71430;-35
2023/12/10 08:07:36;;;;;;;3.30;2.70;;;;;;;14.60;49.30;97711.71;105385;1261;61254;-35
2023/12/10 08:10:05;;;;;;;3.30;3.00;;;;;;;14.59;49.31;97721.86;105171;1256;61240;-36
2023/12/10 08:12:32;;;;;;;3.10;2.80;;;;;;;14.60;49.28;97719.04;105349;1261;74655;-35
2023/12/10 08:15:00;;;;;;;4.60;2.80;;;;;;;14.58;49.22;97716.81;105238;1260;66158;-36
2023/12/10 08:17:33;;;;;;;2.80;2.60;;;;;;;14.58;49.25;97712.88;105268;1261;72451;-35
2023/12/10 08:20:03;;;;;;;2.90;2.60;;;;;;;14.58;49.30;97715.73;105124;1257;61361;-35
2023/12/10 08:22:31;;;;;;;4.90;3.00;;;;;;;14.58;49.23;97711.81;105543;1257;61943;-36
2023/12/10 08:24:58;;;;;;;3.70;2.80;;;;;;;14.58;49.21;97707.48;105401;1258;74577;-35
2023/12/10 08:27:26;;;;;;;3.30;3.00;;;;;;;14.58;49.23;97706.39;105482;1263;66083;-36
2023/12/10 08:29:53;;;;;;;3.40;3.00;;;;;;;14.58;49.27;97707.86;105374;1257;72669;-36
2023/12/10 08:32:21;;;;;;;3.30;2.80;;;;;;;14.57;49.22;97708.77;105506;1262;61138;-35
2023/12/10 08:34:48;;;;;;;3.90;3.40;;;;;;;14.57;49.16;97712.55;105391;1257;61247;-35
2023/12/10 08:37:16;;;;;;;3.20;2.70;;;;;;;14.57;49.33;97707.92;105623;1257;74662;-35
2023/12/10 08:39:43;;;;;;;4.50;3.30;;;;;;;14.57;49.10;97705.23;105456;1259;66360;-36
2023/12/10 08:42:17;;;;;;;2.90;2.60;;;;;;;14.58;49.33;97711.80;105450;1259;72603;-34
2023/12/10 08:44:44;;;;;;;3.80;2.80;;;;;;;14.58;49.29;97714.48;105248;1263;61269;-35
2023/12/10 08:47:13;;;;;;;3.40;3.10;;;;;;;14.57;49.28;97712.08;105506;1257;61278;-36
2023/12/10 08:49:40;;;;;;;3.30;2.90;;;;;;;14.58;49.28;97714.10;105310;1259;75467;-34
2023/12/10 08:52:08;;;;;;;3.90;2.90;;;;;;;14.58;49.37;97719.17;105393;1259;64528;-34
2023/12/10 08:54:35;;;;;;;4.60;2.90;;;;;;;14.58;49.35;97725.73;105530;1257;72636;-35
2023/12/10 08:57:03;;;;;;;3.10;2.80;;;;;;;14.58;49.37;97730.73;105258;1260;61174;-35
2023/12/10 08:59:30;;;;;;;4.70;3.00;;;;;;;14.58;49.18;97731.50;105393;1259;61380;-35
2023/12/10 09:01:58;;;;;;;3.60;2.80;;;;;;;14.58;49.29;97731.91;105490;1258;75161;-35
2023/12/10 09:04:25;;;;;;;3.20;2.90;;;;;;;14.58;49.26;97737.14;105489;1261;66077;-35
2023/12/10 09:06:53;;;;;;;3.90;3.10;;;;;;;14.59;49.28;97735.14;105640;1261;71464;-35
2023/12/10 09:09:20;;;;;;;3.00;2.70;;;;;;;14.59;49.27;97736.48;105553;1261;61810;-34
2023/12/10 09:11:48;;;;;;;3.50;2.90;;;;;;;14.58;49.25;97743.77;105366;1261;61657;-33
2023/12/10 09:14:17;;;;;;;3.20;2.90;;;;;;;14.59;49.24;97742.57;105588;1258;73613;-34
2023/12/10 09:16:47;;;;;;;3.30;2.80;;;;;;;14.59;49.32;97743.48;105618;1262;66020;-36
2023/12/10 09:19:16;;;;;;;3.10;2.70;;;;;;;14.59;49.38;97738.58;105562;1260;72641;-34
2023/12/10 09:21:45;;;;;;;3.40;3.00;;;;;;;14.59;49.28;97733.71;105487;1261;61239;-35
2023/12/10 09:24:12;;;;;;;3.30;3.00;;;;;;;14.59;49.29;97730.49;105208;1261;61236;-35
2023/12/10 09:26:40;;;;;;;3.10;2.80;;;;;;;14.59;49.28;97723.80;105321;1262;74575;-35
2023/12/10 09:29:08;;;;;;;4.10;3.10;;;;;;;14.60;49.29;97721.81;105540;1261;66676;-35
2023/12/10 09:31:36;;;;;;;3.20;2.80;;;;;;;14.60;49.29;97713.95;105365;1259;72402;-34
2023/12/10 09:34:04;;;;;;;3.30;2.90;;;;;;;14.61;49.33;97703.21;105234;1261;61258;-35
2023/12/10 09:36:31;;;;;;;3.30;3.00;;;;;;;14.60;49.28;97695.94;105329;1259;61305;-34
2023/12/10 09:38:58;;;;;;;3.00;2.60;;;;;;;14.61;49.27;97690.34;105478;1261;74644;-35
2023/12/10 09:41:26;;;;;;;3.80;3.20;;;;;;;14.60;49.15;97687.77;105577;1261;65494;-35
2023/12/10 09:43:55;;;;;;;3.30;2.90;;;;;;;14.60;49.27;97698.17;105153;1261;72459;-37
2023/12/10 09:46:24;;;;;;;3.20;2.90;;;;;;;14.60;49.06;97720.35;105001;1274;61311;-35
2023/12/10 09:48:52;;;;;;;4.40;3.20;;;;;;;14.60;49.17;97730.52;105262;1258;61323;-36
2023/12/10 09:51:20;;;;;;;3.60;3.10;;;;;;;14.59;49.01;97734.42;105254;1262;73499;-35
2023/12/10 09:53:48;;;;;;;3.10;2.80;;;;;;;14.59;49.09;97735.66;105109;1261;66058;-35
2023/12/10 09:56:15;;;;;;;3.20;2.90;;;;;;;14.59;49.08;97742.13;105477;1263;72646;-35
2023/12/10 09:58:42;;;;;;;3.50;3.10;;;;;;;14.59;48.97;97739.88;105502;1262;61343;-35
2023/12/10 10:01:10;;;;;;;3.10;2.80;;;;;;;14.58;49.08;97729.98;105368;1259;61277;-35
2023/12/10 10:03:37;;;;;;;4.30;3.20;;;;;;;14.59;48.92;97729.68;105403;1261;74599;-35
2023/12/10 10:06:05;;;;;;;3.40;3.00;;;;;;;14.58;49.03;97733.13;105338;1260;65074;-35
2023/12/10 10:08:33;;;;;;;3.40;3.10;;;;;;;14.58;49.02;97735.97;105235;1259;72410;-35
2023/12/10 10:11:00;;;;;;;3.50;3.20;;;;;;;14.57;48.98;97730.79;105155;1262;61178;-35
2023/12/10 10:13:28;;;;;;;3.50;3.00;;;;;;;14.57;48.94;97738.55;105465;1257;61324;-35
2023/12/10 10:15:55;;;;;;;3.30;2.90;;;;;;;14.57;49.06;97731.55;105453;1262;74650;-35
2023/12/10 10:18:22;;;;;;;3.20;2.90;;;;;;;14.56;48.87;97732.44;105343;1271;65345;-35
2023/12/10 10:20:50;;;;;;;3.20;2.80;;;;;;;14.56;48.94;97732.17;105528;1257;72598;-35
2023/12/10 10:23:17;;;;;;;3.40;3.00;;;;;;;14.55;49.11;97737.27;105158;1262;61173;-35
2023/12/10 10:25:47;;;;;;;3.30;2.80;;;;;;;14.55;49.08;97731.34;105492;1261;61269;-35
2023/12/10 10:28:14;;;;;;;3.80;2.90;;;;;;;14.55;49.02;97730.00;105358;1262;75635;-35
2023/12/10 10:30:43;;;;;;;4.30;3.10;;;;;;;14.55;48.98;97731.23;105433;1261;64310;-34
2023/12/10 10:33:10;;;;;;;3.70;3.20;;;;;;;14.55;49.04;97730.06;105286;1258;72610;-33
2023/12/10 10:35:38;;;;;;;3.50;2.80;;;;;;;14.54;49.09;97736.37;105299;1271;61237;-34
2023/12/10 10:38:07;;;;;;;4.10;3.20;;;;;;;14.54;49.10;97742.36;105275;1261;61290;-35
2023/12/10 10:40:34;;;;;;;3.20;2.90;;;;;;;14.54;49.07;97744.36;105793;1261;74624;-35
2023/12/10 10:43:02;;;;;;;3.70;2.90;;;;;;;14.54;49.02;97740.17;105300;1262;65636;-36
2023/12/10 10:45:30;;;;;;;3.30;2.90;;;;;;;14.54;48.86;97747.81;105817;1257;72678;-35
2023/12/10 10:47:57;;;;;;;4.00;3.00;;;;;;;14.54;49.04;97755.95;105335;1262;61244;-34
2023/12/10 10:50:25;;;;;;;3.40;3.10;;;;;;;14.54;48.96;97748.95;105363;1259;61267;-35
2023/12/10 10:52:53;;;;;;;3.60;2.80;;;;;;;14.54;49.04;97749.74;105338;1263;75032;-36
2023/12/10 10:55:21;;;;;;;5.30;3.10;;;;;;;14.54;48.98;97745.05;105090;1264;65423;-35
2023/12/10 10:57:49;;;;;;;3.50;3.10;;;;;;;14.55;49.13;97735.98;105267;1262;73334;-36
2023/12/10 11:00:16;;;;;;;9.70;2.90;;;;;;;14.54;49.15;97735.29;105271;1258;61163;-37
2023/12/10 11:02:49;;;;;;;3.40;3.10;;;;;;;14.55;49.31;97732.41;105613;1259;61345;-37
2023/12/10 11:05:33;;;;;;;5.40;3.00;;;;;;;14.55;49.30;97735.39;105210;1261;74560;-36
2023/12/10 11:08:03;;;;;;;4.20;3.00;;;;;;;14.55;49.19;97729.02;105278;1257;66277;-36
2023/12/10 11:10:34;;;;;;;3.70;2.90;;;;;;;14.56;49.27;97729.80;105805;1261;71507;-38
2023/12/10 11:13:01;;;;;;;3.00;2.70;;;;;;;14.55;49.31;97736.17;105231;1259;61264;-37
2023/12/10 11:15:29;;;;;;;3.10;2.80;;;;;;;14.55;49.16;97740.02;105242;1258;61733;-37
2023/12/10 11:17:59;;;;;;;3.40;3.00;;;;;;;14.55;49.14;97740.72;105225;1262;74585;-36
2023/12/10 11:20:40;;;;;;;3.20;2.80;;;;;;;14.55;49.36;97738.89;105235;1262;66291;-37
2023/12/10 11:23:13;;;;;;;3.50;3.10;;;;;;;14.55;49.20;97736.02;105604;1262;72519;-37
2023/12/10 11:25:40;;;;;;;7.30;3.30;;;;;;;14.55;49.23;97726.63;105934;1258;61257;-36
2023/12/10 11:28:17;;;;;;;3.10;2.80;;;;;;;14.56;49.22;97719.02;105597;1258;61323;-36